Washington State Corporations
REDMOND

Jurisdiction: Washington State
Source: Washington State Secretary of State

This dataset includes 2.43 million business entities registered with Washington State Secretary of State.

REDMOND · Search Result

Corporation Name Office Address Agent Incorporation
Cordys Switzerland LLC 9918 159th Pl Ne, Redmond, WA 98052-3063 Hans Juerg Huerlimann 2021-11-01
Synergy Physical Therapy LLC 8630 164th Ave Ne Ste 203, Redmond, WA 98052-1906 Bret Swigard 2021-11-01
Malone Legal Pllc 15631 Ne 107th Ct, Redmond, WA 98052-2630 Lorcan Malone 2021-10-22
Eastside Upholstery LLC 2711 152nd Ave Ne, Redmond, WA 98052-5515 North City Law, PC 2021-10-22
820 228th Street Se, LLC 5101 228th Ave Ne, Redmond, WA 98053-8305 James Reed, Jr. 2021-10-22
Moonstar Farms LLC 7905 151st Ave Ne, Redmond, WA 98052-4205 Northwest Registered Agent, LLC 2021-10-21
Carl and Mollie LLC 8350 164th Ave Ne, Redmond, WA 98052-3813 D Edson Clark 2021-10-21
Big Cat Properties L.L.C. 2820 179th Ave Ne, Redmond, WA 98052-5814 United States Corporation Agents, Inc. 2021-10-21
Mailbox Peak Holdings, LLC 10734 179th Ct Ne, Redmond, WA 98052-2895 Gary Schare 2021-10-21
Inovaa, LLC 18909 Ne 20th Ct, Redmond, WA 98052-6066 Registered Agent Solutions, Inc. 2021-10-21
Ascend Development Group, LLC 12228 168th Pl Ne, Redmond, WA 98052-2287 Unisearch, Inc. 2021-10-21
M 70 Explorer, LLC 21732 Ne 105th Pl, Redmond, WA 98053-7653 Fairchild Record Search, Ltd. 2021-10-21
Smithlee LLC 15127 Ne 24th St # 246, Redmond, WA 98052-5544 Vcorp Services, LLC 2021-10-20
Guru Entertainment LLC 21509 Ne 60th Pl, Redmond, WA 98053-2406 Muhammad Saleem Khan Durrani 2021-10-20
Haelstrom LLC 16191 Ne 83rd St Unit C216, Redmond, WA 98052-4047 Leah Tennery 2021-10-20
Padma Investment Group LLC 2483 173rd Pl Ne, Redmond, WA 98052-6224 Manager 2021-10-20
The Light Within, LLC 6180 E Lake Sammamish Pkwy Ne # A404, Redmond, WA 98052-6194 Alexia Clayborne 2021-10-20
Goldstone Studio LLC 16590 Ne 83rd St Unit 212, Redmond, WA 98052-4196 Goldstone Studio LLC 2021-10-20
Virulent Software LLC 2720 152nd Ave Ne Unit 581, Redmond, WA 98052-5965 Northwest Registered Agent, LLC 2021-10-19
Meyer Copley LLC 7601 159th Pl Ne Apt 215, Redmond, WA 98052-5048 Bryan Copley 2021-10-19
Trillium Nurseries and Farms LLC 19520 Ne Union Hill Rd, Redmond, WA 98053-9416 Bear Creek Landscaping, LLC 2021-10-19
Blacklime, LLC 27127 Ne 23rd St, Redmond, WA 98053-9013 Maxwell Holmes 2021-10-19
Smartsupplies LLC 7344 W Lake Sammamish Pkwy Ne, Redmond, WA 98052-4340 United States Corporation Agents, Inc. 2021-10-19
The Lyla and Loki Company, Lp 3040 148th Ave Ne Apt 211, Redmond, WA 98052-6282 Registered Agent Solutions, Inc. 2021-10-18
Norwest Auto LLC 4023 173rd Ct Ne, Redmond, WA 98052-5706 Thai Trinh 2021-10-18
Shiri Foods LLC 9811 228th Ter Ne, Redmond, WA 98053-5851 Chaya Prakash Gowda 2021-10-18
Square27 Homes, LLC 7990 Leary Way Ne Ste 200, Redmond, WA 98052-3840 Ab Service Company LLC 2021-10-18
Vas Technologies LLC 6300 187th Pl Ne Apt 103, Redmond, WA 98052-0524 United States Corporation Agents, Inc. 2021-10-18
M.k. Yoga Pllc 22817 Ne 84th Pl, Redmond, WA 98053-1967 Megan Wysocki 2021-10-18
Guseikai LLC 12125 194th Ave Ne, Redmond, WA 98053-9625 Robert Nash 2021-10-18
Seattle Venture Capital LLC 5312 159th Ave Ne, Redmond, WA 98052-5227 Vamshi Kancharakuntla 2021-10-18
Sj Apartments LLC 3427 180th Ave Ne, Redmond, WA 98052-5806 Wainwright Yu 2021-10-15
Intaqsol LLC 6889 156th Pl Ne, Redmond, WA 98052-4845 Muhammad Amir Shafiq 2021-10-15
Kjl Investments LLC 8020 161st Ave Ne Apt 704, Redmond, WA 98052-4327 Registered Agent Solutions, Inc. 2021-10-13
19411 N Danvers LLC 14915 Ne 75th Ct, Redmond, WA 98052-6808 George Gao 2021-10-13
Adagio LLC 9909 182nd Ct Ne, Redmond, WA 98052-3299 Angela Christensen 2021-10-13
Northwest Rts Company LLC 10028 186th Ct Ne, Redmond, WA 98052-6925 Demetrios Ilias 2021-10-12
Aj Select Services LLC 6201 154th Ave Ne, Redmond, WA 98052-4724 Aj Select Services 2021-10-12
Bobby LLC 15459 Ne 107th Way, Redmond, WA 98052-1633 Vivek Bhatnagar 2021-10-11
Mavryk, LLC 22931 Ne 126th St, Redmond, WA 98053-5632 Andrew Karr 2021-10-11
Neverfair Games, LLC 13782 Ne 60th Way Unit 113, Redmond, WA 98052-4541 Raith Hamzah 2021-10-11
Stendee LLC 10329 206th Ave Ne, Redmond, WA 98053-5111 Stephen Beecroft 2021-10-11
Eastside Property Holdings LLC 7977 170th Ave Ne Apt B125, Redmond, WA 98052-4070 Josiah Willis 2021-10-08
Pishpa Inc. 12122 196th Ave Ne, Redmond, WA 98053 Rouzbeh Aminpour 2021-10-08
Hansen Gig Harbor Investors LLC 7325 166th Ave Ne Ste F260, Redmond, WA 98052-7708 Stephen Hansen 2021-10-08
Perimetrics, Inc. 8441 154th Ave Ne Bldg H Ste 210, Redmond, WA 98052-4730 Cogency Global Inc. 2021-10-07
Macro Hr, LLC 10113 224th Ave Ne, Redmond, WA 98053-5839 Ani Geragosian 2021-10-07
Psk Pony Express LLC 15127 Ne 24th St, Redmond, WA 98052-5544 West Coast Tax and Accounting 2021-10-07
Tuslr Technologies Inc. 7210 221st Ave Ne, Redmond, WA 98053-5900 Alan Siddique 2021-10-07
Retailpy LLP 16615 Redmond Way Ste 3 Ste 3, Redmond, WA 98052-0903 Mariam Maroof 2021-10-07
Kannepalli LLC 15355 Ne 66th Ct, Redmond, WA 98052-4711 Sreekanth Kannepalli 2021-10-06
Ss Puyallup LLC 16745 Ne 120th St, Redmond, WA 98052-2335 Manager 2021-10-06
Twin Pecans LLC 24906 Ne 80th St, Redmond, WA 98053-8018 Jason Valeske 2021-10-06
Akiva Wear LLC 3630 W Ames Lake Dr Ne, Redmond, WA 98053-9106 Alexander Shapiro 2021-10-05
Jsjs LLC 9824 223rd Pl Ne, Redmond, WA 98053-1955 Sanjeev Sharma 2021-10-05
Tapkey Shop, LLC 22233 Ne 46th St, Redmond, WA 98053-8203 Olga Volozina 2021-10-05
W2 LLC 16808 Ne 120th St, Redmond, WA 98052-1703 Lili Wang 2021-10-05
Powern Properties LLC 5014 162nd Ave Ne, Redmond, WA 98052-7000 Lin Chai 2021-10-05
Dreamtree Horticulture Services LLC 17070 Ne 115th Way, Redmond, WA 98052-2316 Rajachitra Senthivel 2021-10-05
Jinbasics LLC 17110 Ne 45th St Apt 25, Redmond, WA 98052-5633 Registered Agents Inc. 2021-10-04
Loopin Hq, Inc. 2720 152nd Ave Ne Unit 761, Redmond, WA 98052-5973 Registered Agents Inc. 2021-10-04
Sensoria Holdings Ltd. 15600 Redmond Way Ste 205, Redmond, WA 98052-3862 Maurizio Macagno 2021-10-04
Fiesta Artesanal, LLC 9210 Redmond Woodinville Rd Ne Apt B117, Redmond, WA 98052-7600 Yazmin Moreno Lopez 2021-10-04
Vihariv LLC 16875 Ne 117th St, Redmond, WA 98052-2341 Manager 2021-10-04
Amble LLC 14123 Ne 86th Ct, Redmond, WA 98052-1958 Garrett Parker 2021-10-04
Bids On Bikes LLC 4738 172nd Ct Se, Redmond, WA 98006-5819 Bids On Bikes 2021-10-04
Ace Property Solutions LLC 7345 164th Ave Ne Ste 1451327, Redmond, WA 98052-7846 United States Corporation Agents, Inc. 2021-10-01
Isobex Usa LLC 11402 177th Pl Ne, Redmond, WA 98052-2360 Manager 2021-10-01
T&t Aerospace, LLC 17603 Ne 108th Way, Redmond, WA 98052-2889 Casey Thompson 2021-10-01
Leadr Technologies, Inc. 8201 164th Ave Ne # 320, Redmond, WA 98052-7604 Fairchild Record Search, Ltd. 2021-10-01
The Lead Laboratory LLC 15440 Bel Red Rd, Redmond, WA 98052-5509 Pr Corp. Services, Inc. 2021-09-30
Shen Holdings LLC 17801 Ne 117th Ct, Redmond, WA 98052-2237 An-Chi Shen 2021-09-30
Edify LLC 8139 231st Pl Ne, Redmond, WA 98053-1993 Arvind Ranasaria 2021-09-30
Adamovich Real Estate LLC 17110 Ne 138th St, Redmond, WA 98052-1720 Andrey Adamovich 2021-09-30
Bullnode LLC 15112 Ne 110th Pl, Redmond, WA 98052-2521 Mark Cooper 2021-09-30
Autometal, LLC 16770 Ne 79th St Ste 102, Redmond, WA 98052-4413 Autometal, LLC 2021-09-30
Iron Stem LLC 14797 Ne 95th St, Redmond, WA 98052-2557 Northwest Registered Agent, LLC 2021-09-30
Leo 32 LLC 9484 Redmond Woodinville Rd Ne Apt C109, Redmond, WA 98052-3603 Chris Walker 2021-09-29
A+ Monitoring LLC 2651 151st Pl Ne Ste 1c, Redmond, WA 98052-5563 Scott Nordberg 2021-09-29
Pacific Northwest Palliative Care LLC 17016 Ne 107th St, Redmond, WA 98052-2708 Pauline Lao 2021-09-29
Origins Consulting, LLC 16390 Cleveland St, Redmond, WA 98052-4314 C T Corporation System 2021-09-29
Hour Loop, Inc. 8201 164th Ave Ne Ste 200, Redmond, WA 98052-7615 Corporate Creations Network Inc. 2021-09-29
All American, LLC 3989 Nw Xavier Ave, Redmond, OR 97756-9157 Washington Registered Agent, LLC. 2021-09-28
Kayra Collection LLC 22651 Ne Alder Crest Dr Unit 202, Redmond, WA 98053-5866 Komal Gandhi 2021-09-28
Scrutari LLC 23515 Ne Novelty Hill Rd Ste B221-215, Redmond, WA 98053-1996 Steve Studhalter 2021-09-28
2 Thumbs Up Screen Printing LLC 24626 Ne 102nd St, Redmond, WA 98053-6224 Kempton Bushnell 2021-09-28
The Donovan Allen LLC 9206 133rd Ct Ne, Redmond, WA 98052-6437 Donovan Allen 2021-09-28
Mr. Taxbuddy LLC 6910 Old Redmond Rd Apt 124, Redmond, WA 98052-6830 Venkata Anil Kumar Jasti 2021-09-28
Publizoid LLC 8280 164th Ave Ne Unit 502, Redmond, WA 98052-5187 Eric Isaac 2021-09-28
Big Bang Investment, LLC 15925 Ne 117th St, Redmond, WA 98052-2389 Bigang Li 2021-09-27
Bright Eyes Childcare, LLC 10219 242nd Ave Ne, Redmond, WA 98053-2502 Vera Venkata Naga Ganni 2021-09-27
Mbm Cargo Inc 6280 186th Pl Ne Apt 203, Redmond, WA 98052-0538 Bekzod Baratov 2021-09-27
Udowhatugottado Eventing, LLC 4900 260th Ave Ne, Redmond, WA 98053-8515 Udowhatugottado Eventing 2021-09-27
Jamestown Holdings LLC 4005 244th Ave Ne, Redmond, WA 98053-8435 Cathy Shegnagaev 2021-09-24
Nda Investments LLC 17744 Ne 101st Ct, Redmond, WA 98052-3290 Nidhi Jaiswal 2021-09-24
Redmond Ridge Marketplace, LLC 22310 Ne Marketplace Dr Ste A-4, Redmond, WA 98053-2038 James Jameson 2021-09-24
Csk Associates, LLC 4811 270th Ave Ne, Redmond, WA 98053-2737 Csk Associates, LLC 2021-09-24
Xplore Leasing, LLC 6742 185th Ave Ne, Redmond, WA 98052-6731 C T Corporation System 2021-09-24
27432 Union Hill, LLC 27432 Ne Union Hill Rd, Redmond, WA 98053-8793 Trustee and Corporate Services, Inc. 2021-09-23
Ssrre Homes LLC 10756 240th Ave Ne, Redmond, WA 98053-6303 Manager 2021-09-23